Main page
METAR-TAF:

METAR-TAF

Airports :

Liège, Belgium

Liège Airport

latitude: 50-39N, longitude: 005-27E, elevation: 186 m

Current weather observation

The report was made 20 minutes ago, at 07:50 UTC
Wind 1 kt from variable directions
Temperature -4°C
Humidity 80%
Pressure 1025 hPa
Visibility 10 km or more
no clouds below 1500 m and no cumulonimbus

METAR: EBLG 040750Z VRB01KT CAVOK M04/M07 Q1025 NOSIG

Time: 09:10 (08:10 UTC)

Forecast

The report was made 3 hours and 10 minutes ago, at 05:00 UTC
Forecast valid from 04 at 06 UTC to 05 at 12 UTC
Wind 5 kt from the East/Northeast
Visibility 10 km or more
no clouds below 1500 m and no cumulonimbus

TAF: EBLG 040500Z 0406/0512 06005KT CAVOK

Weather observations and forecasts of more than 4000 airports (METAR and TAF reports).

The available stations are represented by yellow and red dots on the map.

Hover mouse over dot to see the name of the station.

Then click to see weather observations and forecasts.

To change the map : click on the green buttons with a black cross to zoom in, on the green button with a dash to zoom out, or on the green arrows for adjacent maps.


METAR-TAF: